sensor_id;sensor_type;location;lat;lon;timestamp;P1;durP1;ratioP1;P2;durP2;ratioP2
57321;SDS011;43159;51.006;18.224;2023-08-31T00:06:04;15.50;;;8.70;;
57321;SDS011;43159;51.006;18.224;2023-08-31T00:15:55;10.60;;;5.30;;
57321;SDS011;43159;51.006;18.224;2023-08-31T00:25:45;10.80;;;4.90;;
57321;SDS011;43159;51.006;18.224;2023-08-31T00:35:33;8.40;;;4.00;;
57321;SDS011;43159;51.006;18.224;2023-08-31T00:45:17;9.60;;;3.80;;
57321;SDS011;43159;51.006;18.224;2023-08-31T00:55:03;3.00;;;1.50;;
57321;SDS011;43159;51.006;18.224;2023-08-31T01:05:03;21.70;;;4.20;;
57321;SDS011;43159;51.006;18.224;2023-08-31T01:15:00;10.20;;;4.30;;
57321;SDS011;43159;51.006;18.224;2023-08-31T01:25:08;10.20;;;4.70;;
57321;SDS011;43159;51.006;18.224;2023-08-31T01:34:51;13.10;;;4.40;;
57321;SDS011;43159;51.006;18.224;2023-08-31T01:44:39;10.60;;;4.50;;
57321;SDS011;43159;51.006;18.224;2023-08-31T01:54:32;10.50;;;5.10;;
57321;SDS011;43159;51.006;18.224;2023-08-31T02:04:15;10.80;;;5.50;;
57321;SDS011;43159;51.006;18.224;2023-08-31T02:14:00;12.20;;;6.10;;
57321;SDS011;43159;51.006;18.224;2023-08-31T02:23:42;17.10;;;7.40;;
57321;SDS011;43159;51.006;18.224;2023-08-31T02:33:24;11.80;;;5.60;;
57321;SDS011;43159;51.006;18.224;2023-08-31T02:43:07;11.20;;;4.10;;
57321;SDS011;43159;51.006;18.224;2023-08-31T02:52:50;11.20;;;4.70;;
57321;SDS011;43159;51.006;18.224;2023-08-31T03:02:36;10.70;;;4.40;;
57321;SDS011;43159;51.006;18.224;2023-08-31T03:12:18;13.20;;;3.40;;
57321;SDS011;43159;51.006;18.224;2023-08-31T03:22:00;17.60;;;4.90;;
57321;SDS011;43159;51.006;18.224;2023-08-31T03:31:42;12.80;;;6.00;;
57321;SDS011;43159;51.006;18.224;2023-08-31T03:41:24;11.30;;;5.40;;
57321;SDS011;43159;51.006;18.224;2023-08-31T03:51:06;13.00;;;4.90;;
57321;SDS011;43159;51.006;18.224;2023-08-31T04:00:51;11.90;;;5.60;;
57321;SDS011;43159;51.006;18.224;2023-08-31T04:10:32;8.40;;;2.90;;
57321;SDS011;43159;51.006;18.224;2023-08-31T04:20:17;20.10;;;5.20;;
57321;SDS011;43159;51.006;18.224;2023-08-31T04:30:00;13.00;;;6.30;;
57321;SDS011;43159;51.006;18.224;2023-08-31T04:39:43;8.60;;;3.90;;
57321;SDS011;43159;51.006;18.224;2023-08-31T04:49:26;11.70;;;5.20;;
57321;SDS011;43159;51.006;18.224;2023-08-31T04:59:08;13.30;;;4.50;;
57321;SDS011;43159;51.006;18.224;2023-08-31T05:06:25;14.60;;;7.00;;
57321;SDS011;43159;51.006;18.224;2023-08-31T05:16:08;12.40;;;4.30;;
57321;SDS011;43159;51.006;18.224;2023-08-31T05:25:52;9.10;;;4.00;;
57321;SDS011;43159;51.006;18.224;2023-08-31T05:35:47;13.00;;;4.30;;
57321;SDS011;43159;51.006;18.224;2023-08-31T05:45:33;15.30;;;3.70;;
57321;SDS011;43159;51.006;18.224;2023-08-31T05:55:17;9.20;;;3.20;;
57321;SDS011;43159;51.006;18.224;2023-08-31T06:05:01;9.40;;;3.40;;
57321;SDS011;43159;51.006;18.224;2023-08-31T06:14:45;10.30;;;4.20;;
57321;SDS011;43159;51.006;18.224;2023-08-31T06:24:29;10.40;;;5.10;;
57321;SDS011;43159;51.006;18.224;2023-08-31T06:34:12;10.30;;;3.50;;
57321;SDS011;43159;51.006;18.224;2023-08-31T06:43:56;10.50;;;2.90;;
57321;SDS011;43159;51.006;18.224;2023-08-31T06:53:41;7.70;;;3.40;;
57321;SDS011;43159;51.006;18.224;2023-08-31T07:03:23;7.30;;;2.80;;
57321;SDS011;43159;51.006;18.224;2023-08-31T07:13:05;9.10;;;3.00;;
57321;SDS011;43159;51.006;18.224;2023-08-31T07:22:48;8.60;;;3.00;;
57321;SDS011;43159;51.006;18.224;2023-08-31T07:32:31;6.20;;;2.40;;
57321;SDS011;43159;51.006;18.224;2023-08-31T07:42:14;9.00;;;2.80;;
57321;SDS011;43159;51.006;18.224;2023-08-31T07:51:58;9.30;;;2.90;;
57321;SDS011;43159;51.006;18.224;2023-08-31T08:01:41;7.00;;;2.30;;
57321;SDS011;43159;51.006;18.224;2023-08-31T08:11:23;9.90;;;2.80;;
57321;SDS011;43159;51.006;18.224;2023-08-31T08:21:05;12.90;;;2.70;;
57321;SDS011;43159;51.006;18.224;2023-08-31T08:30:50;6.10;;;2.50;;
57321;SDS011;43159;51.006;18.224;2023-08-31T08:40:32;6.20;;;2.80;;
57321;SDS011;43159;51.006;18.224;2023-08-31T08:50:22;9.20;;;3.10;;
57321;SDS011;43159;51.006;18.224;2023-08-31T09:00:06;5.20;;;2.30;;
57321;SDS011;43159;51.006;18.224;2023-08-31T09:09:53;8.30;;;3.00;;
57321;SDS011;43159;51.006;18.224;2023-08-31T09:20:09;6.60;;;2.90;;
57321;SDS011;43159;51.006;18.224;2023-08-31T09:29:54;11.50;;;4.60;;
57321;SDS011;43159;51.006;18.224;2023-08-31T09:51:03;10.30;;;5.00;;
57321;SDS011;43159;51.006;18.224;2023-08-31T10:01:36;14.50;;;4.50;;
57321;SDS011;43159;51.006;18.224;2023-08-31T10:11:19;10.10;;;4.20;;
57321;SDS011;43159;51.006;18.224;2023-08-31T10:46:59;8.30;;;2.90;;
57321;SDS011;43159;51.006;18.224;2023-08-31T10:57:11;7.30;;;2.60;;
57321;SDS011;43159;51.006;18.224;2023-08-31T11:41:53;6.50;;;2.00;;
57321;SDS011;43159;51.006;18.224;2023-08-31T11:53:17;6.30;;;2.30;;
57321;SDS011;43159;51.006;18.224;2023-08-31T12:04:25;5.80;;;2.10;;
57321;SDS011;43159;51.006;18.224;2023-08-31T12:52:16;8.60;;;2.40;;
57321;SDS011;43159;51.006;18.224;2023-08-31T13:01:58;4.70;;;1.70;;
57321;SDS011;43159;51.006;18.224;2023-08-31T13:11:40;5.80;;;2.00;;
57321;SDS011;43159;51.006;18.224;2023-08-31T13:21:23;12.70;;;2.10;;
57321;SDS011;43159;51.006;18.224;2023-08-31T13:31:06;5.40;;;1.70;;
57321;SDS011;43159;51.006;18.224;2023-08-31T13:40:55;8.00;;;2.40;;
57321;SDS011;43159;51.006;18.224;2023-08-31T13:50:59;5.90;;;2.10;;
57321;SDS011;43159;51.006;18.224;2023-08-31T14:00:41;4.00;;;1.50;;
57321;SDS011;43159;51.006;18.224;2023-08-31T14:10:24;3.70;;;1.60;;
57321;SDS011;43159;51.006;18.224;2023-08-31T14:20:19;3.90;;;1.70;;
57321;SDS011;43159;51.006;18.224;2023-08-31T14:30:04;8.10;;;2.20;;
57321;SDS011;43159;51.006;18.224;2023-08-31T14:39:51;5.10;;;1.20;;
57321;SDS011;43159;51.006;18.224;2023-08-31T14:49:38;3.30;;;1.30;;
57321;SDS011;43159;51.006;18.224;2023-08-31T14:59:24;11.50;;;1.90;;
57321;SDS011;43159;51.006;18.224;2023-08-31T15:09:06;5.30;;;1.90;;
57321;SDS011;43159;51.006;18.224;2023-08-31T15:18:50;5.80;;;1.70;;
57321;SDS011;43159;51.006;18.224;2023-08-31T15:28:34;4.10;;;1.30;;
57321;SDS011;43159;51.006;18.224;2023-08-31T15:38:19;4.80;;;1.70;;
57321;SDS011;43159;51.006;18.224;2023-08-31T15:48:09;10.50;;;2.10;;
57321;SDS011;43159;51.006;18.224;2023-08-31T15:57:51;6.10;;;2.10;;
57321;SDS011;43159;51.006;18.224;2023-08-31T16:07:37;5.10;;;1.40;;
57321;SDS011;43159;51.006;18.224;2023-08-31T16:17:21;6.80;;;1.50;;
57321;SDS011;43159;51.006;18.224;2023-08-31T16:27:05;5.20;;;1.60;;
57321;SDS011;43159;51.006;18.224;2023-08-31T16:36:48;5.50;;;1.80;;
57321;SDS011;43159;51.006;18.224;2023-08-31T16:46:34;8.80;;;2.50;;
57321;SDS011;43159;51.006;18.224;2023-08-31T16:56:16;8.90;;;2.40;;
57321;SDS011;43159;51.006;18.224;2023-08-31T17:05:58;5.70;;;1.90;;
57321;SDS011;43159;51.006;18.224;2023-08-31T17:15:42;8.20;;;2.70;;
57321;SDS011;43159;51.006;18.224;2023-08-31T17:25:28;7.30;;;2.00;;
57321;SDS011;43159;51.006;18.224;2023-08-31T17:35:10;9.40;;;3.50;;
57321;SDS011;43159;51.006;18.224;2023-08-31T17:45:02;9.30;;;2.50;;
57321;SDS011;43159;51.006;18.224;2023-08-31T17:54:47;5.80;;;2.00;;
57321;SDS011;43159;51.006;18.224;2023-08-31T18:04:31;9.40;;;3.20;;
57321;SDS011;43159;51.006;18.224;2023-08-31T18:14:17;9.20;;;3.70;;
57321;SDS011;43159;51.006;18.224;2023-08-31T18:24:00;12.80;;;4.10;;
57321;SDS011;43159;51.006;18.224;2023-08-31T18:41:00;11.60;;;2.80;;
57321;SDS011;43159;51.006;18.224;2023-08-31T18:50:46;8.50;;;2.80;;
57321;SDS011;43159;51.006;18.224;2023-08-31T19:00:38;8.60;;;2.20;;
57321;SDS011;43159;51.006;18.224;2023-08-31T19:10:21;5.30;;;2.10;;
57321;SDS011;43159;51.006;18.224;2023-08-31T19:20:08;7.20;;;2.10;;
57321;SDS011;43159;51.006;18.224;2023-08-31T19:30:02;17.10;;;2.50;;
57321;SDS011;43159;51.006;18.224;2023-08-31T19:39:44;6.90;;;2.40;;
57321;SDS011;43159;51.006;18.224;2023-08-31T19:49:28;6.30;;;2.30;;
57321;SDS011;43159;51.006;18.224;2023-08-31T19:59:11;2.60;;;1.50;;
57321;SDS011;43159;51.006;18.224;2023-08-31T20:09:11;9.00;;;3.20;;
57321;SDS011;43159;51.006;18.224;2023-08-31T20:18:57;6.90;;;2.50;;
57321;SDS011;43159;51.006;18.224;2023-08-31T20:36:19;7.40;;;2.40;;
57321;SDS011;43159;51.006;18.224;2023-08-31T20:46:37;7.40;;;2.90;;
57321;SDS011;43159;51.006;18.224;2023-08-31T20:56:32;10.70;;;3.80;;
57321;SDS011;43159;51.006;18.224;2023-08-31T21:06:28;9.40;;;3.90;;
57321;SDS011;43159;51.006;18.224;2023-08-31T21:16:30;10.90;;;3.70;;
57321;SDS011;43159;51.006;18.224;2023-08-31T21:26:37;11.70;;;4.10;;
57321;SDS011;43159;51.006;18.224;2023-08-31T21:36:35;7.40;;;3.50;;
57321;SDS011;43159;51.006;18.224;2023-08-31T21:46:27;21.80;;;6.60;;
57321;SDS011;43159;51.006;18.224;2023-08-31T21:56:09;9.30;;;3.50;;
57321;SDS011;43159;51.006;18.224;2023-08-31T22:05:55;12.40;;;4.30;;
57321;SDS011;43159;51.006;18.224;2023-08-31T22:15:42;8.70;;;4.40;;
57321;SDS011;43159;51.006;18.224;2023-08-31T22:25:28;12.00;;;5.10;;
57321;SDS011;43159;51.006;18.224;2023-08-31T22:35:14;7.20;;;2.30;;
57321;SDS011;43159;51.006;18.224;2023-08-31T22:45:04;9.10;;;3.00;;
57321;SDS011;43159;51.006;18.224;2023-08-31T22:54:51;8.80;;;2.70;;
57321;SDS011;43159;51.006;18.224;2023-08-31T23:02:09;12.20;;;5.30;;
57321;SDS011;43159;51.006;18.224;2023-08-31T23:11:52;7.10;;;2.30;;
57321;SDS011;43159;51.006;18.224;2023-08-31T23:21:35;10.80;;;4.10;;
57321;SDS011;43159;51.006;18.224;2023-08-31T23:31:19;12.70;;;4.30;;
57321;SDS011;43159;51.006;18.224;2023-08-31T23:41:16;12.00;;;4.20;;
57321;SDS011;43159;51.006;18.224;2023-08-31T23:51:17;10.50;;;4.30;;
